sensor_id;sensor_type;location;lat;lon;timestamp;temperature;humidity
12602;DHT22;30282;16.436;99.370;2023-02-13T00:02:19;21.90;99.90
12602;DHT22;30282;16.436;99.370;2023-02-13T00:04:51;22.00;99.90
12602;DHT22;30282;16.436;99.370;2023-02-13T00:07:20;22.00;99.90
12602;DHT22;30282;16.436;99.370;2023-02-13T00:09:49;22.00;99.90
12602;DHT22;30282;16.436;99.370;2023-02-13T00:12:18;22.00;99.90
12602;DHT22;30282;16.436;99.370;2023-02-13T00:14:47;22.00;99.90
12602;DHT22;30282;16.436;99.370;2023-02-13T00:17:18;21.90;99.90
12602;DHT22;30282;16.436;99.370;2023-02-13T00:19:47;22.00;99.90
12602;DHT22;30282;16.436;99.370;2023-02-13T00:22:17;22.00;99.90
12602;DHT22;30282;16.436;99.370;2023-02-13T00:24:47;22.00;99.90
12602;DHT22;30282;16.436;99.370;2023-02-13T00:27:17;22.00;99.90
12602;DHT22;30282;16.436;99.370;2023-02-13T00:29:47;22.10;99.90
12602;DHT22;30282;16.436;99.370;2023-02-13T00:32:16;22.10;99.90
12602;DHT22;30282;16.436;99.370;2023-02-13T00:34:46;22.20;99.90
12602;DHT22;30282;16.436;99.370;2023-02-13T00:37:16;22.30;99.90
12602;DHT22;30282;16.436;99.370;2023-02-13T00:39:45;22.40;99.90
12602;DHT22;30282;16.436;99.370;2023-02-13T00:42:14;22.40;99.90
12602;DHT22;30282;16.436;99.370;2023-02-13T00:44:43;22.50;99.90
12602;DHT22;30282;16.436;99.370;2023-02-13T00:47:12;22.60;99.90
12602;DHT22;30282;16.436;99.370;2023-02-13T00:49:41;22.70;99.90
12602;DHT22;30282;16.436;99.370;2023-02-13T00:52:12;22.70;99.90
12602;DHT22;30282;16.436;99.370;2023-02-13T00:54:41;22.80;99.90
12602;DHT22;30282;16.436;99.370;2023-02-13T00:57:11;22.90;99.90
12602;DHT22;30282;16.436;99.370;2023-02-13T00:59:40;23.10;99.90
12602;DHT22;30282;16.436;99.370;2023-02-13T01:02:09;23.20;99.90
12602;DHT22;30282;16.436;99.370;2023-02-13T01:04:38;23.40;99.90
12602;DHT22;30282;16.436;99.370;2023-02-13T01:07:07;23.50;99.90
12602;DHT22;30282;16.436;99.370;2023-02-13T01:09:38;23.60;99.90
12602;DHT22;30282;16.436;99.370;2023-02-13T01:12:07;23.70;99.90
12602;DHT22;30282;16.436;99.370;2023-02-13T01:14:37;23.80;99.90
12602;DHT22;30282;16.436;99.370;2023-02-13T01:17:06;24.00;99.90
12602;DHT22;30282;16.436;99.370;2023-02-13T01:19:35;24.10;99.90
12602;DHT22;30282;16.436;99.370;2023-02-13T01:22:04;24.20;99.90
12602;DHT22;30282;16.436;99.370;2023-02-13T01:24:34;24.30;99.90
12602;DHT22;30282;16.436;99.370;2023-02-13T01:27:05;24.50;99.90
12602;DHT22;30282;16.436;99.370;2023-02-13T01:29:34;24.60;99.90
12602;DHT22;30282;16.436;99.370;2023-02-13T01:32:04;24.70;99.90
12602;DHT22;30282;16.436;99.370;2023-02-13T01:34:33;24.80;99.90
12602;DHT22;30282;16.436;99.370;2023-02-13T01:37:03;24.80;99.90
12602;DHT22;30282;16.436;99.370;2023-02-13T01:39:32;24.90;99.90
12602;DHT22;30282;16.436;99.370;2023-02-13T01:42:01;24.70;99.90
12602;DHT22;30282;16.436;99.370;2023-02-13T01:44:49;24.60;99.90
12602;DHT22;30282;16.436;99.370;2023-02-13T01:47:24;24.50;99.90
12602;DHT22;30282;16.436;99.370;2023-02-13T01:50:11;24.60;99.90
12602;DHT22;30282;16.436;99.370;2023-02-13T01:52:46;24.70;99.90
12602;DHT22;30282;16.436;99.370;2023-02-13T01:55:16;24.80;99.90
12602;DHT22;30282;16.436;99.370;2023-02-13T01:57:48;24.90;99.90
12602;DHT22;30282;16.436;99.370;2023-02-13T02:00:24;25.10;99.90
12602;DHT22;30282;16.436;99.370;2023-02-13T02:02:55;25.10;99.90
12602;DHT22;30282;16.436;99.370;2023-02-13T02:05:27;25.30;99.90
12602;DHT22;30282;16.436;99.370;2023-02-13T02:07:59;25.40;99.90
12602;DHT22;30282;16.436;99.370;2023-02-13T02:10:30;25.50;99.90
12602;DHT22;30282;16.436;99.370;2023-02-13T02:13:04;25.70;99.90
12602;DHT22;30282;16.436;99.370;2023-02-13T02:15:36;26.00;99.90
12602;DHT22;30282;16.436;99.370;2023-02-13T02:18:08;26.20;99.90
12602;DHT22;30282;16.436;99.370;2023-02-13T02:21:03;26.30;99.90
12602;DHT22;30282;16.436;99.370;2023-02-13T02:24:12;26.50;99.90
12602;DHT22;30282;16.436;99.370;2023-02-13T02:33:08;26.90;99.90
12602;DHT22;30282;16.436;99.370;2023-02-13T02:35:46;27.10;99.90
12602;DHT22;30282;16.436;99.370;2023-02-13T02:38:33;27.20;99.90
12602;DHT22;30282;16.436;99.370;2023-02-13T02:41:10;27.30;99.90
12602;DHT22;30282;16.436;99.370;2023-02-13T02:44:10;27.50;99.90
12602;DHT22;30282;16.436;99.370;2023-02-13T02:46:50;27.60;99.90
12602;DHT22;30282;16.436;99.370;2023-02-13T02:49:38;27.70;99.90
12602;DHT22;30282;16.436;99.370;2023-02-13T02:52:47;27.80;99.90
12602;DHT22;30282;16.436;99.370;2023-02-13T02:55:27;28.00;99.90
12602;DHT22;30282;16.436;99.370;2023-02-13T02:58:04;28.10;99.90
12602;DHT22;30282;16.436;99.370;2023-02-13T03:00:55;28.20;99.90
12602;DHT22;30282;16.436;99.370;2023-02-13T03:03:41;28.30;99.90
12602;DHT22;30282;16.436;99.370;2023-02-13T03:06:29;28.50;99.90
12602;DHT22;30282;16.436;99.370;2023-02-13T03:09:02;28.70;99.90
12602;DHT22;30282;16.436;99.370;2023-02-13T03:11:50;28.90;99.90
12602;DHT22;30282;16.436;99.370;2023-02-13T03:14:38;28.90;99.90
12602;DHT22;30282;16.436;99.370;2023-02-13T03:17:10;29.00;99.90
12602;DHT22;30282;16.436;99.370;2023-02-13T03:20:05;29.10;99.90
12602;DHT22;30282;16.436;99.370;2023-02-13T03:23:02;29.20;99.90
12602;DHT22;30282;16.436;99.370;2023-02-13T03:25:40;29.40;99.90
12602;DHT22;30282;16.436;99.370;2023-02-13T03:28:18;29.50;99.90
12602;DHT22;30282;16.436;99.370;2023-02-13T03:31:12;29.70;99.90
12602;DHT22;30282;16.436;99.370;2023-02-13T03:33:54;30.00;99.90
12602;DHT22;30282;16.436;99.370;2023-02-13T03:36:32;30.10;99.90
12602;DHT22;30282;16.436;99.370;2023-02-13T03:39:23;30.30;99.90
12602;DHT22;30282;16.436;99.370;2023-02-13T03:41:56;30.50;99.90
12602;DHT22;30282;16.436;99.370;2023-02-13T03:44:29;30.60;99.90
12602;DHT22;30282;16.436;99.370;2023-02-13T03:47:01;30.70;99.90
12602;DHT22;30282;16.436;99.370;2023-02-13T03:49:40;30.80;99.90
12602;DHT22;30282;16.436;99.370;2023-02-13T03:52:30;30.90;99.90
12602;DHT22;30282;16.436;99.370;2023-02-13T03:55:05;31.10;99.90
12602;DHT22;30282;16.436;99.370;2023-02-13T03:57:53;31.10;99.90
12602;DHT22;30282;16.436;99.370;2023-02-13T04:00:43;31.30;99.90
12602;DHT22;30282;16.436;99.370;2023-02-13T04:03:15;31.50;99.90
12602;DHT22;30282;16.436;99.370;2023-02-13T04:05:49;31.70;99.90
12602;DHT22;30282;16.436;99.370;2023-02-13T04:08:19;31.80;99.90
12602;DHT22;30282;16.436;99.370;2023-02-13T04:10:53;31.90;99.90
12602;DHT22;30282;16.436;99.370;2023-02-13T04:13:29;31.90;99.90
12602;DHT22;30282;16.436;99.370;2023-02-13T04:16:05;32.00;99.90
12602;DHT22;30282;16.436;99.370;2023-02-13T04:18:36;32.10;99.90
12602;DHT22;30282;16.436;99.370;2023-02-13T04:21:07;32.40;99.90
12602;DHT22;30282;16.436;99.370;2023-02-13T04:23:36;32.50;99.90
12602;DHT22;30282;16.436;99.370;2023-02-13T04:26:11;32.70;99.90
12602;DHT22;30282;16.436;99.370;2023-02-13T04:28:42;32.70;99.90
12602;DHT22;30282;16.436;99.370;2023-02-13T04:31:11;32.80;99.90
12602;DHT22;30282;16.436;99.370;2023-02-13T04:33:41;32.80;99.90
12602;DHT22;30282;16.436;99.370;2023-02-13T04:36:10;33.00;99.90
12602;DHT22;30282;16.436;99.370;2023-02-13T04:38:39;33.10;99.90
12602;DHT22;30282;16.436;99.370;2023-02-13T04:41:10;33.20;99.90
12602;DHT22;30282;16.436;99.370;2023-02-13T04:43:39;33.50;99.90
12602;DHT22;30282;16.436;99.370;2023-02-13T04:46:08;33.50;99.90
12602;DHT22;30282;16.436;99.370;2023-02-13T04:48:37;33.60;99.90
12602;DHT22;30282;16.436;99.370;2023-02-13T04:51:07;33.60;99.90
12602;DHT22;30282;16.436;99.370;2023-02-13T04:53:36;33.70;99.90
12602;DHT22;30282;16.436;99.370;2023-02-13T04:56:05;33.80;99.90
12602;DHT22;30282;16.436;99.370;2023-02-13T04:58:36;34.00;99.90
12602;DHT22;30282;16.436;99.370;2023-02-13T05:01:11;34.10;99.90
12602;DHT22;30282;16.436;99.370;2023-02-13T05:03:41;34.10;99.90
12602;DHT22;30282;16.436;99.370;2023-02-13T05:06:10;34.20;99.90
12602;DHT22;30282;16.436;99.370;2023-02-13T05:08:39;34.30;99.90
12602;DHT22;30282;16.436;99.370;2023-02-13T05:11:08;34.50;99.90
12602;DHT22;30282;16.436;99.370;2023-02-13T05:13:39;34.70;99.90
12602;DHT22;30282;16.436;99.370;2023-02-13T05:16:08;34.70;99.90
12602;DHT22;30282;16.436;99.370;2023-02-13T05:18:37;34.70;99.90
12602;DHT22;30282;16.436;99.370;2023-02-13T05:21:07;34.70;99.90
12602;DHT22;30282;16.436;99.370;2023-02-13T05:23:52;34.90;99.90
12602;DHT22;30282;16.436;99.370;2023-02-13T05:26:21;35.20;99.90
12602;DHT22;30282;16.436;99.370;2023-02-13T05:28:52;35.20;99.90
12602;DHT22;30282;16.436;99.370;2023-02-13T05:31:38;35.20;99.90
12602;DHT22;30282;16.436;99.370;2023-02-13T05:34:07;35.40;99.90
12602;DHT22;30282;16.436;99.370;2023-02-13T05:36:37;35.50;99.90
12602;DHT22;30282;16.436;99.370;2023-02-13T05:39:06;35.40;99.90
12602;DHT22;30282;16.436;99.370;2023-02-13T05:41:36;35.50;99.90
12602;DHT22;30282;16.436;99.370;2023-02-13T05:44:06;35.60;99.90
12602;DHT22;30282;16.436;99.370;2023-02-13T05:46:37;35.70;99.90
12602;DHT22;30282;16.436;99.370;2023-02-13T05:49:07;35.60;99.90
12602;DHT22;30282;16.436;99.370;2023-02-13T05:51:36;35.60;99.90
12602;DHT22;30282;16.436;99.370;2023-02-13T05:54:06;35.60;99.90
12602;DHT22;30282;16.436;99.370;2023-02-13T05:56:35;35.60;99.90
12602;DHT22;30282;16.436;99.370;2023-02-13T05:59:06;35.80;99.90
12602;DHT22;30282;16.436;99.370;2023-02-13T06:01:35;35.90;99.90
12602;DHT22;30282;16.436;99.370;2023-02-13T06:04:04;36.00;99.90
12602;DHT22;30282;16.436;99.370;2023-02-13T06:06:33;35.90;99.90
12602;DHT22;30282;16.436;99.370;2023-02-13T06:09:02;36.00;99.90
12602;DHT22;30282;16.436;99.370;2023-02-13T06:11:31;35.90;99.90
12602;DHT22;30282;16.436;99.370;2023-02-13T06:14:00;35.90;99.90
12602;DHT22;30282;16.436;99.370;2023-02-13T06:16:31;36.00;99.90
12602;DHT22;30282;16.436;99.370;2023-02-13T06:19:00;35.90;99.90
12602;DHT22;30282;16.436;99.370;2023-02-13T06:21:29;35.90;99.90
12602;DHT22;30282;16.436;99.370;2023-02-13T06:23:59;35.90;99.90
12602;DHT22;30282;16.436;99.370;2023-02-13T06:26:28;35.80;99.90
12602;DHT22;30282;16.436;99.370;2023-02-13T06:28:57;35.90;99.90
12602;DHT22;30282;16.436;99.370;2023-02-13T06:31:26;35.80;99.90
12602;DHT22;30282;16.436;99.370;2023-02-13T06:33:57;35.90;99.90
12602;DHT22;30282;16.436;99.370;2023-02-13T06:36:26;35.90;99.90
12602;DHT22;30282;16.436;99.370;2023-02-13T06:38:55;36.00;99.90
12602;DHT22;30282;16.436;99.370;2023-02-13T06:41:24;36.00;99.90
12602;DHT22;30282;16.436;99.370;2023-02-13T06:43:54;35.90;99.90
12602;DHT22;30282;16.436;99.370;2023-02-13T06:46:23;35.90;99.90
12602;DHT22;30282;16.436;99.370;2023-02-13T06:48:52;36.00;99.90
12602;DHT22;30282;16.436;99.370;2023-02-13T06:51:22;35.90;99.90
12602;DHT22;30282;16.436;99.370;2023-02-13T06:53:51;35.90;99.90
12602;DHT22;30282;16.436;99.370;2023-02-13T06:56:21;35.90;99.90
12602;DHT22;30282;16.436;99.370;2023-02-13T06:58:52;36.00;99.90
12602;DHT22;30282;16.436;99.370;2023-02-13T07:01:21;36.00;99.90
12602;DHT22;30282;16.436;99.370;2023-02-13T07:03:50;35.90;99.90
12602;DHT22;30282;16.436;99.370;2023-02-13T07:06:21;35.90;99.90
12602;DHT22;30282;16.436;99.370;2023-02-13T07:08:50;35.90;99.90
12602;DHT22;30282;16.436;99.370;2023-02-13T07:11:22;35.70;99.90
12602;DHT22;30282;16.436;99.370;2023-02-13T07:13:52;35.70;99.90
12602;DHT22;30282;16.436;99.370;2023-02-13T07:16:21;35.80;99.90
12602;DHT22;30282;16.436;99.370;2023-02-13T07:18:50;35.70;99.90
12602;DHT22;30282;16.436;99.370;2023-02-13T07:21:21;35.70;99.90
12602;DHT22;30282;16.436;99.370;2023-02-13T07:23:51;35.70;99.90
12602;DHT22;30282;16.436;99.370;2023-02-13T07:26:20;35.70;99.90
12602;DHT22;30282;16.436;99.370;2023-02-13T07:28:49;35.50;99.90
12602;DHT22;30282;16.436;99.370;2023-02-13T07:31:18;35.50;99.90
12602;DHT22;30282;16.436;99.370;2023-02-13T07:33:48;35.50;99.90
12602;DHT22;30282;16.436;99.370;2023-02-13T07:36:18;35.60;99.90
12602;DHT22;30282;16.436;99.370;2023-02-13T07:38:48;35.50;99.90
12602;DHT22;30282;16.436;99.370;2023-02-13T07:41:17;35.60;99.90
12602;DHT22;30282;16.436;99.370;2023-02-13T07:43:46;35.70;99.90
12602;DHT22;30282;16.436;99.370;2023-02-13T07:46:16;35.80;99.90
12602;DHT22;30282;16.436;99.370;2023-02-13T07:48:45;35.70;99.90
12602;DHT22;30282;16.436;99.370;2023-02-13T07:51:14;35.70;99.90
12602;DHT22;30282;16.436;99.370;2023-02-13T07:53:43;35.70;99.90
12602;DHT22;30282;16.436;99.370;2023-02-13T07:56:14;35.70;99.90
12602;DHT22;30282;16.436;99.370;2023-02-13T07:58:43;35.70;99.90
12602;DHT22;30282;16.436;99.370;2023-02-13T08:01:14;35.80;99.90
12602;DHT22;30282;16.436;99.370;2023-02-13T08:03:47;35.80;99.90
12602;DHT22;30282;16.436;99.370;2023-02-13T08:06:18;35.90;99.90
12602;DHT22;30282;16.436;99.370;2023-02-13T08:08:48;35.80;99.90
12602;DHT22;30282;16.436;99.370;2023-02-13T08:11:39;35.70;99.90
12602;DHT22;30282;16.436;99.370;2023-02-13T08:14:24;35.60;99.90
12602;DHT22;30282;16.436;99.370;2023-02-13T08:16:54;35.70;99.90
12602;DHT22;30282;16.436;99.370;2023-02-13T08:19:23;35.70;99.90
12602;DHT22;30282;16.436;99.370;2023-02-13T08:21:53;35.60;99.90
12602;DHT22;30282;16.436;99.370;2023-02-13T08:24:23;35.60;99.90
12602;DHT22;30282;16.436;99.370;2023-02-13T08:26:55;35.60;99.90
12602;DHT22;30282;16.436;99.370;2023-02-13T08:29:25;35.60;99.90
12602;DHT22;30282;16.436;99.370;2023-02-13T08:31:55;35.70;99.90
12602;DHT22;30282;16.436;99.370;2023-02-13T08:34:24;35.60;99.90
12602;DHT22;30282;16.436;99.370;2023-02-13T08:36:53;35.60;99.90
12602;DHT22;30282;16.436;99.370;2023-02-13T08:39:22;35.60;99.90
12602;DHT22;30282;16.436;99.370;2023-02-13T08:41:54;35.60;99.90
12602;DHT22;30282;16.436;99.370;2023-02-13T08:44:23;35.50;99.90
12602;DHT22;30282;16.436;99.370;2023-02-13T08:46:52;35.50;99.90
12602;DHT22;30282;16.436;99.370;2023-02-13T08:49:21;35.40;99.90
12602;DHT22;30282;16.436;99.370;2023-02-13T08:51:50;35.40;99.90
12602;DHT22;30282;16.436;99.370;2023-02-13T08:54:19;35.40;99.90
12602;DHT22;30282;16.436;99.370;2023-02-13T08:56:48;35.40;99.90
12602;DHT22;30282;16.436;99.370;2023-02-13T08:59:21;35.40;99.90
12602;DHT22;30282;16.436;99.370;2023-02-13T09:01:50;35.40;99.90
12602;DHT22;30282;16.436;99.370;2023-02-13T09:04:19;35.30;99.90
12602;DHT22;30282;16.436;99.370;2023-02-13T09:06:48;35.30;99.90
12602;DHT22;30282;16.436;99.370;2023-02-13T09:09:18;35.20;99.90
12602;DHT22;30282;16.436;99.370;2023-02-13T09:11:47;35.20;99.90
12602;DHT22;30282;16.436;99.370;2023-02-13T09:14:17;35.20;99.90
12602;DHT22;30282;16.436;99.370;2023-02-13T09:16:48;35.10;99.90
12602;DHT22;30282;16.436;99.370;2023-02-13T09:19:17;35.10;99.90
12602;DHT22;30282;16.436;99.370;2023-02-13T09:21:46;35.10;99.90
12602;DHT22;30282;16.436;99.370;2023-02-13T09:24:15;35.00;99.90
12602;DHT22;30282;16.436;99.370;2023-02-13T09:26:45;35.00;99.90
12602;DHT22;30282;16.436;99.370;2023-02-13T09:29:14;34.90;99.90
12602;DHT22;30282;16.436;99.370;2023-02-13T09:31:43;34.80;99.90
12602;DHT22;30282;16.436;99.370;2023-02-13T09:34:13;34.80;99.90
12602;DHT22;30282;16.436;99.370;2023-02-13T09:36:42;34.80;99.90
12602;DHT22;30282;16.436;99.370;2023-02-13T09:39:12;34.80;99.90
12602;DHT22;30282;16.436;99.370;2023-02-13T09:41:42;34.70;99.90
12602;DHT22;30282;16.436;99.370;2023-02-13T09:44:15;34.70;99.90
12602;DHT22;30282;16.436;99.370;2023-02-13T09:46:57;34.70;99.90
12602;DHT22;30282;16.436;99.370;2023-02-13T09:49:31;34.70;99.90
12602;DHT22;30282;16.436;99.370;2023-02-13T09:52:01;34.70;99.90
12602;DHT22;30282;16.436;99.370;2023-02-13T09:54:31;34.70;99.90
12602;DHT22;30282;16.436;99.370;2023-02-13T09:57:01;34.60;99.90
12602;DHT22;30282;16.436;99.370;2023-02-13T09:59:41;34.50;99.90
12602;DHT22;30282;16.436;99.370;2023-02-13T10:02:45;34.50;99.90
12602;DHT22;30282;16.436;99.370;2023-02-13T10:05:34;34.40;99.90
12602;DHT22;30282;16.436;99.370;2023-02-13T10:08:15;34.40;99.90
12602;DHT22;30282;16.436;99.370;2023-02-13T10:11:12;34.30;99.90
12602;DHT22;30282;16.436;99.370;2023-02-13T10:14:13;34.20;99.90
12602;DHT22;30282;16.436;99.370;2023-02-13T10:16:45;34.10;99.90
12602;DHT22;30282;16.436;99.370;2023-02-13T10:19:28;34.10;99.90
12602;DHT22;30282;16.436;99.370;2023-02-13T10:22:04;34.00;99.90
12602;DHT22;30282;16.436;99.370;2023-02-13T10:24:39;33.90;99.90
12602;DHT22;30282;16.436;99.370;2023-02-13T10:27:21;33.90;99.90
12602;DHT22;30282;16.436;99.370;2023-02-13T10:29:56;33.80;99.90
12602;DHT22;30282;16.436;99.370;2023-02-13T10:32:54;33.70;99.90
12602;DHT22;30282;16.436;99.370;2023-02-13T10:35:37;33.70;99.90
12602;DHT22;30282;16.436;99.370;2023-02-13T10:38:15;33.50;99.90
12602;DHT22;30282;16.436;99.370;2023-02-13T10:40:58;33.40;99.90
12602;DHT22;30282;16.436;99.370;2023-02-13T10:43:38;33.40;99.90
12602;DHT22;30282;16.436;99.370;2023-02-13T10:46:15;33.40;99.90
12602;DHT22;30282;16.436;99.370;2023-02-13T10:48:55;33.20;99.90
12602;DHT22;30282;16.436;99.370;2023-02-13T10:51:29;33.20;99.90
12602;DHT22;30282;16.436;99.370;2023-02-13T10:54:25;33.10;99.90
12602;DHT22;30282;16.436;99.370;2023-02-13T10:57:03;33.00;99.90
12602;DHT22;30282;16.436;99.370;2023-02-13T11:00:00;33.00;99.90
12602;DHT22;30282;16.436;99.370;2023-02-13T11:02:34;32.90;99.90
12602;DHT22;30282;16.436;99.370;2023-02-13T11:05:14;32.80;99.90
12602;DHT22;30282;16.436;99.370;2023-02-13T11:07:45;32.80;99.90
12602;DHT22;30282;16.436;99.370;2023-02-13T11:10:18;32.70;99.90
12602;DHT22;30282;16.436;99.370;2023-02-13T11:12:49;32.60;99.90
12602;DHT22;30282;16.436;99.370;2023-02-13T11:15:26;32.60;99.90
12602;DHT22;30282;16.436;99.370;2023-02-13T11:18:02;32.40;99.90
12602;DHT22;30282;16.436;99.370;2023-02-13T11:20:40;32.40;99.90
12602;DHT22;30282;16.436;99.370;2023-02-13T11:23:26;32.30;99.90
12602;DHT22;30282;16.436;99.370;2023-02-13T11:26:04;32.20;99.90
12602;DHT22;30282;16.436;99.370;2023-02-13T11:28:38;32.20;99.90
12602;DHT22;30282;16.436;99.370;2023-02-13T11:31:18;32.10;99.90
12602;DHT22;30282;16.436;99.370;2023-02-13T11:33:49;32.10;99.90
12602;DHT22;30282;16.436;99.370;2023-02-13T11:36:25;32.10;99.90
12602;DHT22;30282;16.436;99.370;2023-02-13T11:39:02;32.00;99.90
12602;DHT22;30282;16.436;99.370;2023-02-13T11:41:39;32.00;99.90
12602;DHT22;30282;16.436;99.370;2023-02-13T11:44:21;31.90;99.90
12602;DHT22;30282;16.436;99.370;2023-02-13T11:46:55;32.00;99.90
12602;DHT22;30282;16.436;99.370;2023-02-13T11:49:26;31.90;99.90
12602;DHT22;30282;16.436;99.370;2023-02-13T11:51:57;31.90;99.90
12602;DHT22;30282;16.436;99.370;2023-02-13T11:54:32;32.00;99.90
12602;DHT22;30282;16.436;99.370;2023-02-13T11:57:18;31.90;99.90
12602;DHT22;30282;16.436;99.370;2023-02-13T11:59:49;31.90;99.90
12602;DHT22;30282;16.436;99.370;2023-02-13T12:02:20;31.80;99.90
12602;DHT22;30282;16.436;99.370;2023-02-13T12:04:51;31.60;99.90
12602;DHT22;30282;16.436;99.370;2023-02-13T12:07:22;31.50;99.90
12602;DHT22;30282;16.436;99.370;2023-02-13T12:09:58;31.50;99.90
12602;DHT22;30282;16.436;99.370;2023-02-13T12:12:38;31.40;99.90
12602;DHT22;30282;16.436;99.370;2023-02-13T12:15:17;31.30;99.90
12602;DHT22;30282;16.436;99.370;2023-02-13T12:17:48;31.30;99.90
12602;DHT22;30282;16.436;99.370;2023-02-13T12:20:21;31.20;99.90
12602;DHT22;30282;16.436;99.370;2023-02-13T12:23:00;31.20;99.90
12602;DHT22;30282;16.436;99.370;2023-02-13T12:25:52;31.10;99.90
12602;DHT22;30282;16.436;99.370;2023-02-13T12:28:51;31.10;99.90
12602;DHT22;30282;16.436;99.370;2023-02-13T12:31:40;31.10;99.90
12602;DHT22;30282;16.436;99.370;2023-02-13T12:40:50;31.00;99.90
12602;DHT22;30282;16.436;99.370;2023-02-13T12:43:58;30.90;99.90
12602;DHT22;30282;16.436;99.370;2023-02-13T12:46:35;30.90;99.90
12602;DHT22;30282;16.436;99.370;2023-02-13T12:52:18;30.80;99.90
12602;DHT22;30282;16.436;99.370;2023-02-13T12:55:01;30.70;99.90
12602;DHT22;30282;16.436;99.370;2023-02-13T12:58:00;30.60;99.90
12602;DHT22;30282;16.436;99.370;2023-02-13T13:00:40;30.60;99.90
12602;DHT22;30282;16.436;99.370;2023-02-13T13:03:33;30.50;99.90
12602;DHT22;30282;16.436;99.370;2023-02-13T13:06:48;30.50;99.90
12602;DHT22;30282;16.436;99.370;2023-02-13T13:09:31;30.50;99.90
12602;DHT22;30282;16.436;99.370;2023-02-13T13:12:17;30.40;99.90
12602;DHT22;30282;16.436;99.370;2023-02-13T13:14:54;30.30;99.90
12602;DHT22;30282;16.436;99.370;2023-02-13T13:17:42;30.30;99.90
12602;DHT22;30282;16.436;99.370;2023-02-13T13:20:33;30.30;99.90
12602;DHT22;30282;16.436;99.370;2023-02-13T13:23:08;30.20;99.90
12602;DHT22;30282;16.436;99.370;2023-02-13T13:25:47;30.20;99.90
12602;DHT22;30282;16.436;99.370;2023-02-13T13:28:21;30.10;99.90
12602;DHT22;30282;16.436;99.370;2023-02-13T13:30:52;30.10;99.90
12602;DHT22;30282;16.436;99.370;2023-02-13T13:33:25;30.00;99.90
12602;DHT22;30282;16.436;99.370;2023-02-13T13:36:02;30.00;99.90
12602;DHT22;30282;16.436;99.370;2023-02-13T13:38:48;29.90;99.90
12602;DHT22;30282;16.436;99.370;2023-02-13T13:41:28;29.90;99.90
12602;DHT22;30282;16.436;99.370;2023-02-13T13:44:08;29.70;99.90
12602;DHT22;30282;16.436;99.370;2023-02-13T13:46:49;29.70;99.90
12602;DHT22;30282;16.436;99.370;2023-02-13T13:49:33;29.70;99.90
12602;DHT22;30282;16.436;99.370;2023-02-13T13:52:18;29.60;99.90
12602;DHT22;30282;16.436;99.370;2023-02-13T13:54:48;29.40;99.90
12602;DHT22;30282;16.436;99.370;2023-02-13T13:57:20;29.40;99.90
12602;DHT22;30282;16.436;99.370;2023-02-13T14:00:02;29.20;99.90
12602;DHT22;30282;16.436;99.370;2023-02-13T14:02:42;29.20;99.90
12602;DHT22;30282;16.436;99.370;2023-02-13T14:05:25;29.10;99.90
12602;DHT22;30282;16.436;99.370;2023-02-13T14:07:56;28.90;99.90
12602;DHT22;30282;16.436;99.370;2023-02-13T14:10:59;28.80;99.90
12602;DHT22;30282;16.436;99.370;2023-02-13T14:13:34;28.60;99.90
12602;DHT22;30282;16.436;99.370;2023-02-13T14:16:04;28.60;99.90
12602;DHT22;30282;16.436;99.370;2023-02-13T14:18:34;28.60;99.90
12602;DHT22;30282;16.436;99.370;2023-02-13T14:21:06;28.60;99.90
12602;DHT22;30282;16.436;99.370;2023-02-13T14:23:44;28.50;99.90
12602;DHT22;30282;16.436;99.370;2023-02-13T14:26:33;28.60;99.90
12602;DHT22;30282;16.436;99.370;2023-02-13T14:29:21;28.80;99.90
12602;DHT22;30282;16.436;99.370;2023-02-13T14:32:02;28.70;99.90
12602;DHT22;30282;16.436;99.370;2023-02-13T14:34:36;28.70;99.90
12602;DHT22;30282;16.436;99.370;2023-02-13T14:37:20;28.70;99.90
12602;DHT22;30282;16.436;99.370;2023-02-13T14:43:16;28.60;99.90
12602;DHT22;30282;16.436;99.370;2023-02-13T14:45:50;28.60;99.90
12602;DHT22;30282;16.436;99.370;2023-02-13T14:48:27;28.60;99.90
12602;DHT22;30282;16.436;99.370;2023-02-13T14:50:57;28.60;99.90
12602;DHT22;30282;16.436;99.370;2023-02-13T14:53:30;28.70;99.90
12602;DHT22;30282;16.436;99.370;2023-02-13T14:56:10;28.80;99.90
12602;DHT22;30282;16.436;99.370;2023-02-13T14:58:47;28.80;99.90
12602;DHT22;30282;16.436;99.370;2023-02-13T15:01:24;28.80;99.90
12602;DHT22;30282;16.436;99.370;2023-02-13T15:04:02;28.70;99.90
12602;DHT22;30282;16.436;99.370;2023-02-13T15:06:37;28.60;99.90
12602;DHT22;30282;16.436;99.370;2023-02-13T15:09:23;28.60;99.90
12602;DHT22;30282;16.436;99.370;2023-02-13T15:11:55;28.50;99.90
12602;DHT22;30282;16.436;99.370;2023-02-13T15:14:30;28.20;99.90
12602;DHT22;30282;16.436;99.370;2023-02-13T15:17:05;28.00;99.90
12602;DHT22;30282;16.436;99.370;2023-02-13T15:19:38;27.90;99.90
12602;DHT22;30282;16.436;99.370;2023-02-13T15:22:18;27.90;99.90
12602;DHT22;30282;16.436;99.370;2023-02-13T15:24:49;27.90;99.90
12602;DHT22;30282;16.436;99.370;2023-02-13T15:27:23;27.90;99.90
12602;DHT22;30282;16.436;99.370;2023-02-13T15:29:55;27.90;99.90
12602;DHT22;30282;16.436;99.370;2023-02-13T15:32:28;27.90;99.90
12602;DHT22;30282;16.436;99.370;2023-02-13T15:34:57;28.00;99.90
12602;DHT22;30282;16.436;99.370;2023-02-13T15:37:28;28.10;99.90
12602;DHT22;30282;16.436;99.370;2023-02-13T15:40:14;28.10;99.90
12602;DHT22;30282;16.436;99.370;2023-02-13T15:42:44;28.00;99.90
12602;DHT22;30282;16.436;99.370;2023-02-13T15:45:17;27.80;99.90
12602;DHT22;30282;16.436;99.370;2023-02-13T15:47:47;27.70;99.90
12602;DHT22;30282;16.436;99.370;2023-02-13T15:50:18;27.50;99.90
12602;DHT22;30282;16.436;99.370;2023-02-13T15:52:48;27.40;99.90
12602;DHT22;30282;16.436;99.370;2023-02-13T15:55:22;27.40;99.90
12602;DHT22;30282;16.436;99.370;2023-02-13T15:57:54;27.40;99.90
12602;DHT22;30282;16.436;99.370;2023-02-13T16:00:25;27.40;99.90
12602;DHT22;30282;16.436;99.370;2023-02-13T16:02:56;27.40;99.90
12602;DHT22;30282;16.436;99.370;2023-02-13T16:05:27;27.40;99.90
12602;DHT22;30282;16.436;99.370;2023-02-13T16:07:58;27.40;99.90
12602;DHT22;30282;16.436;99.370;2023-02-13T16:10:32;27.40;99.90
12602;DHT22;30282;16.436;99.370;2023-02-13T16:13:03;27.50;99.90
12602;DHT22;30282;16.436;99.370;2023-02-13T16:15:35;27.50;99.90
12602;DHT22;30282;16.436;99.370;2023-02-13T16:18:09;27.50;99.90
12602;DHT22;30282;16.436;99.370;2023-02-13T16:20:45;27.50;99.90
12602;DHT22;30282;16.436;99.370;2023-02-13T16:23:21;27.40;99.90